createdAt,value
2022-10-15T00:02:38.007Z,100.00
2022-10-15T00:05:13.453Z,100.00
2022-10-15T00:07:48.503Z,100.00
2022-10-15T00:10:28.395Z,100.00
2022-10-15T00:13:09.361Z,100.00
2022-10-15T00:15:39.979Z,100.00
2022-10-15T00:18:11.433Z,100.00
2022-10-15T00:20:51.452Z,100.00
2022-10-15T00:23:29.226Z,100.00
2022-10-15T00:26:42.496Z,100.00
2022-10-15T00:29:24.229Z,100.00
2022-10-15T00:32:09.158Z,100.00
2022-10-15T00:35:01.298Z,100.00
2022-10-15T00:37:48.728Z,100.00
2022-10-15T00:40:24.067Z,100.00
2022-10-15T00:43:12.456Z,100.00
2022-10-15T00:45:41.975Z,100.00
2022-10-15T00:48:19.951Z,100.00
2022-10-15T00:50:47.126Z,100.00
2022-10-15T00:53:19.160Z,100.00
2022-10-15T00:55:54.137Z,100.00
2022-10-15T00:58:31.776Z,100.00
2022-10-15T01:01:01.678Z,100.00
2022-10-15T01:03:39.948Z,100.00
2022-10-15T01:06:15.634Z,100.00
2022-10-15T01:08:46.417Z,100.00
2022-10-15T01:11:41.206Z,100.00
2022-10-15T01:14:18.453Z,100.00
2022-10-15T01:17:05.380Z,100.00
2022-10-15T01:20:15.831Z,100.00
2022-10-15T01:23:26.549Z,100.00
2022-10-15T01:26:27.066Z,100.00
2022-10-15T01:29:30.863Z,100.00
2022-10-15T01:32:19.797Z,100.00
2022-10-15T01:34:57.535Z,100.00
2022-10-15T01:37:44.860Z,100.00
2022-10-15T01:40:51.470Z,100.00
2022-10-15T01:43:46.961Z,100.00
2022-10-15T01:46:38.378Z,100.00
2022-10-15T01:49:28.153Z,100.00
2022-10-15T01:52:12.144Z,100.00
2022-10-15T01:54:42.097Z,100.00
2022-10-15T01:57:11.307Z,100.00
2022-10-15T01:59:54.489Z,100.00
2022-10-15T02:02:30.587Z,100.00
2022-10-15T02:05:02.504Z,100.00
2022-10-15T02:08:12.904Z,100.00
2022-10-15T02:11:16.516Z,100.00
2022-10-15T02:14:03.307Z,100.00
2022-10-15T02:16:54.847Z,100.00
2022-10-15T02:19:45.963Z,100.00
2022-10-15T02:22:37.631Z,100.00
2022-10-15T02:25:18.527Z,100.00
2022-10-15T02:27:57.457Z,100.00
2022-10-15T02:30:38.140Z,100.00
2022-10-15T02:33:21.280Z,100.00
2022-10-15T02:35:52.514Z,100.00
2022-10-15T02:38:32.169Z,100.00
2022-10-15T02:41:15.405Z,100.00
2022-10-15T02:43:54.097Z,100.00
2022-10-15T02:46:28.677Z,100.00
2022-10-15T02:49:06.901Z,100.00
2022-10-15T02:51:39.822Z,100.00
2022-10-15T02:54:17.642Z,100.00
2022-10-15T02:57:10.217Z,100.00
2022-10-15T02:59:49.165Z,100.00
2022-10-15T03:02:30.385Z,100.00
2022-10-15T03:05:03.058Z,100.00
2022-10-15T03:07:34.880Z,100.00
2022-10-15T03:10:18.880Z,100.00
2022-10-15T03:12:46.942Z,100.00
2022-10-15T03:15:22.852Z,100.00
2022-10-15T03:18:04.408Z,100.00
2022-10-15T03:20:44.730Z,100.00
2022-10-15T03:23:29.085Z,100.00
2022-10-15T03:26:21.734Z,100.00
2022-10-15T03:29:01.446Z,100.00
2022-10-15T03:31:47.479Z,100.00
2022-10-15T03:34:34.796Z,100.00
2022-10-15T03:37:19.509Z,100.00
2022-10-15T03:39:53.493Z,100.00
2022-10-15T03:42:23.647Z,100.00
2022-10-15T03:44:59.567Z,100.00
2022-10-15T03:47:35.423Z,100.00
2022-10-15T03:50:19.519Z,100.00
2022-10-15T03:52:57.274Z,100.00
2022-10-15T03:55:38.295Z,100.00
2022-10-15T03:58:26.190Z,100.00
2022-10-15T04:01:19.638Z,100.00
2022-10-15T04:03:58.476Z,100.00
2022-10-15T04:06:45.144Z,100.00
2022-10-15T04:09:23.142Z,100.00
2022-10-15T04:12:14.510Z,100.00
2022-10-15T04:14:47.112Z,100.00
2022-10-15T04:17:23.295Z,100.00
2022-10-15T04:19:59.676Z,100.00
2022-10-15T04:22:39.406Z,100.00
2022-10-15T04:25:21.158Z,100.00
2022-10-15T04:27:59.621Z,100.00
2022-10-15T04:30:50.223Z,100.00
2022-10-15T04:36:50.119Z,100.00
2022-10-15T04:39:27.937Z,100.00
2022-10-15T04:42:00.105Z,100.00
2022-10-15T04:44:53.869Z,100.00
2022-10-15T04:47:32.423Z,100.00
2022-10-15T04:50:25.629Z,100.00
2022-10-15T04:53:14.214Z,100.00
2022-10-15T04:55:55.883Z,100.00
2022-10-15T04:58:32.564Z,100.00
2022-10-15T05:01:06.761Z,100.00
2022-10-15T05:04:00.446Z,100.00
2022-10-15T05:06:39.082Z,100.00
2022-10-15T05:09:23.745Z,100.00
2022-10-15T05:11:58.157Z,100.00
2022-10-15T05:14:39.041Z,100.00
2022-10-15T05:17:15.691Z,100.00
2022-10-15T05:19:47.610Z,100.00
2022-10-15T05:22:22.141Z,100.00
2022-10-15T05:24:53.231Z,100.00
2022-10-15T05:27:48.126Z,100.00
2022-10-15T05:30:26.267Z,100.00
2022-10-15T05:32:57.785Z,100.00
2022-10-15T05:35:31.449Z,100.00
2022-10-15T05:38:11.636Z,100.00
2022-10-15T05:40:41.620Z,100.00
2022-10-15T05:43:21.841Z,100.00
2022-10-15T05:45:59.910Z,100.00
2022-10-15T05:48:26.975Z,100.00
2022-10-15T05:50:56.306Z,100.00
2022-10-15T05:53:43.835Z,100.00
2022-10-15T05:56:23.243Z,100.00
2022-10-15T05:58:53.051Z,100.00
2022-10-15T06:01:22.156Z,100.00
2022-10-15T06:03:57.465Z,100.00
2022-10-15T06:06:36.515Z,100.00
2022-10-15T06:09:08.983Z,100.00
2022-10-15T06:11:46.983Z,100.00
2022-10-15T06:14:25.487Z,100.00
2022-10-15T06:17:11.395Z,100.00
2022-10-15T06:19:54.551Z,100.00
2022-10-15T06:22:27.063Z,100.00
2022-10-15T06:24:56.633Z,100.00
2022-10-15T06:27:36.500Z,100.00
2022-10-15T06:30:21.495Z,100.00
2022-10-15T06:32:59.681Z,100.00
2022-10-15T06:35:39.365Z,100.00
2022-10-15T06:38:22.893Z,100.00
2022-10-15T06:41:08.874Z,100.00
2022-10-15T06:43:46.811Z,100.00
2022-10-15T06:46:27.433Z,100.00
2022-10-15T06:49:09.897Z,100.00
2022-10-15T06:52:03.854Z,100.00
2022-10-15T06:54:39.072Z,100.00
2022-10-15T06:57:25.514Z,100.00
2022-10-15T07:00:09.503Z,100.00
2022-10-15T07:02:52.294Z,100.00
2022-10-15T07:05:34.392Z,100.00
2022-10-15T07:08:18.407Z,100.00
2022-10-15T07:11:03.744Z,100.00
2022-10-15T07:13:46.561Z,100.00
2022-10-15T07:16:27.458Z,100.00
2022-10-15T07:19:10.614Z,100.00
2022-10-15T07:21:46.398Z,100.00
2022-10-15T07:24:35.051Z,100.00
2022-10-15T07:27:19.318Z,100.00
2022-10-15T07:30:07.034Z,100.00
2022-10-15T07:32:42.669Z,100.00
2022-10-15T07:35:22.773Z,100.00
2022-10-15T07:38:06.055Z,100.00
2022-10-15T07:40:49.562Z,100.00
2022-10-15T07:43:39.917Z,100.00
2022-10-15T07:46:22.631Z,100.00
2022-10-15T07:49:11.792Z,100.00
2022-10-15T07:51:46.516Z,100.00
2022-10-15T07:54:21.440Z,100.00
2022-10-15T07:56:56.432Z,100.00
2022-10-15T07:59:36.836Z,100.00
2022-10-15T08:02:27.898Z,100.00
2022-10-15T08:05:02.451Z,100.00
2022-10-15T08:07:42.037Z,100.00
2022-10-15T08:10:24.015Z,100.00
2022-10-15T08:13:06.941Z,100.00
2022-10-15T08:15:56.304Z,100.00
2022-10-15T08:18:37.967Z,100.00
2022-10-15T08:21:19.244Z,100.00
2022-10-15T08:23:52.176Z,100.00
2022-10-15T08:26:28.281Z,100.00
2022-10-15T08:29:11.644Z,100.00
2022-10-15T08:31:52.295Z,100.00
2022-10-15T08:34:34.820Z,100.00
2022-10-15T08:37:10.755Z,100.00
2022-10-15T08:39:48.747Z,100.00
2022-10-15T08:42:41.406Z,100.00
2022-10-15T08:45:30.228Z,100.00
2022-10-15T08:48:16.662Z,100.00
2022-10-15T08:51:08.525Z,100.00
2022-10-15T08:53:55.390Z,100.00
2022-10-15T08:56:36.927Z,99.82
2022-10-15T08:59:42.706Z,99.40
2022-10-15T09:02:34.682Z,98.49
2022-10-15T09:05:24.999Z,97.68
2022-10-15T09:08:06.878Z,97.95
2022-10-15T09:10:57.911Z,97.28
2022-10-15T09:13:40.316Z,94.34
2022-10-15T09:16:34.907Z,90.96
2022-10-15T09:19:19.513Z,93.66
2022-10-15T09:21:56.289Z,92.50
2022-10-15T09:24:31.639Z,93.39
2022-10-15T09:27:38.126Z,90.64
2022-10-15T09:30:22.412Z,88.74
2022-10-15T09:32:56.648Z,88.60
2022-10-15T09:35:57.480Z,85.86
2022-10-15T09:38:52.387Z,87.23
2022-10-15T09:41:53.713Z,87.13
2022-10-15T09:44:45.942Z,86.49
2022-10-15T09:47:49.394Z,86.16
2022-10-15T09:50:30.289Z,83.82
2022-10-15T09:53:11.040Z,85.61
2022-10-15T09:55:46.067Z,87.89
2022-10-15T09:58:29.048Z,86.55
2022-10-15T10:01:19.789Z,86.48
2022-10-15T10:04:11.794Z,87.50
2022-10-15T10:06:55.468Z,85.46
2022-10-15T10:09:45.507Z,85.48
2022-10-15T10:12:26.277Z,86.12
2022-10-15T10:15:10.163Z,85.39
2022-10-15T10:17:57.139Z,84.08
2022-10-15T10:20:36.092Z,84.26
2022-10-15T10:23:34.665Z,85.87
2022-10-15T10:26:11.358Z,82.15
2022-10-15T10:29:04.656Z,81.94
2022-10-15T10:31:45.040Z,80.88
2022-10-15T10:34:41.235Z,80.60
2022-10-15T10:37:25.778Z,79.87
2022-10-15T10:40:02.903Z,81.82
2022-10-15T10:42:40.796Z,80.69
2022-10-15T10:45:50.118Z,78.86
2022-10-15T10:48:37.535Z,81.22
2022-10-15T10:51:31.043Z,78.72
2022-10-15T10:54:18.213Z,79.46
2022-10-15T10:56:54.211Z,79.40
2022-10-15T10:59:47.483Z,77.99
2022-10-15T11:02:22.524Z,79.23
2022-10-15T11:05:00.934Z,73.91
2022-10-15T11:07:41.994Z,76.15
2022-10-15T11:10:35.453Z,74.09
2022-10-15T11:13:31.274Z,72.10
2022-10-15T11:16:29.016Z,70.80
2022-10-15T11:20:13.138Z,72.25
2022-10-15T11:23:11.531Z,72.29
2022-10-15T11:26:12.336Z,72.23
2022-10-15T11:29:06.864Z,74.14
2022-10-15T11:31:55.068Z,74.79
2022-10-15T11:35:20.098Z,74.56
2022-10-15T11:38:30.089Z,74.62
2022-10-15T11:41:29.464Z,73.49
2022-10-15T11:44:18.220Z,70.00
2022-10-15T11:47:34.243Z,73.14
2022-10-15T11:50:33.587Z,71.51
2022-10-15T11:53:08.122Z,71.81
2022-10-15T11:55:54.982Z,71.13
2022-10-15T11:58:43.044Z,70.90
2022-10-15T12:01:32.665Z,72.34
2022-10-15T12:04:33.505Z,73.36
2022-10-15T12:07:10.618Z,66.74
2022-10-15T12:09:52.858Z,66.18
2022-10-15T12:12:33.433Z,64.57
2022-10-15T12:15:19.507Z,66.54
2022-10-15T12:18:05.861Z,67.20
2022-10-15T12:20:48.473Z,66.47
2022-10-15T12:23:45.121Z,64.57
2022-10-15T12:26:32.676Z,65.79
2022-10-15T12:29:23.051Z,67.24
2022-10-15T12:32:04.972Z,65.88
2022-10-15T12:34:49.369Z,66.15
2022-10-15T12:37:27.680Z,66.46
2022-10-15T12:40:29.065Z,67.32
2022-10-15T12:43:17.697Z,66.13
2022-10-15T12:46:02.950Z,68.60
2022-10-15T12:48:39.931Z,67.83
2022-10-15T12:51:24.863Z,68.25
2022-10-15T12:54:02.445Z,65.91
2022-10-15T12:56:45.364Z,67.97
2022-10-15T13:00:02.628Z,67.92
2022-10-15T13:02:38.484Z,67.29
2022-10-15T13:05:25.190Z,67.89
2022-10-15T13:08:03.003Z,66.61
2022-10-15T13:10:55.425Z,68.20
2022-10-15T13:13:33.928Z,68.90
2022-10-15T13:16:14.453Z,66.40
2022-10-15T13:18:54.048Z,66.61
2022-10-15T13:21:46.052Z,68.78
2022-10-15T13:24:24.385Z,68.42
2022-10-15T13:27:01.995Z,70.33
2022-10-15T13:29:39.576Z,68.15
2022-10-15T13:32:27.497Z,67.98
2022-10-15T13:35:09.158Z,67.33
2022-10-15T13:37:46.985Z,68.18
2022-10-15T13:40:29.549Z,69.02
2022-10-15T13:43:17.279Z,70.08
2022-10-15T13:45:57.845Z,70.25
2022-10-15T13:48:35.270Z,70.63
2022-10-15T13:51:06.035Z,69.27
2022-10-15T13:53:56.206Z,72.56
2022-10-15T13:56:33.998Z,71.02
2022-10-15T13:59:26.870Z,70.98
2022-10-15T14:02:09.254Z,70.13
2022-10-15T14:04:41.414Z,72.72
2022-10-15T14:07:27.728Z,70.69
2022-10-15T14:10:02.656Z,73.56
2022-10-15T14:12:31.861Z,72.93
2022-10-15T14:15:40.417Z,72.02
2022-10-15T14:18:22.989Z,72.86
2022-10-15T14:21:07.809Z,71.94
2022-10-15T14:23:43.098Z,73.94
2022-10-15T14:26:16.816Z,73.96
2022-10-15T14:28:58.362Z,75.24
2022-10-15T14:31:52.916Z,73.47
2022-10-15T14:34:39.429Z,74.26
2022-10-15T14:37:33.816Z,74.55
2022-10-15T14:40:14.880Z,74.75
2022-10-15T14:43:04.867Z,74.96
2022-10-15T14:45:53.700Z,74.87
2022-10-15T14:48:35.274Z,76.05
2022-10-15T14:51:19.635Z,76.71
2022-10-15T14:53:58.055Z,75.52
2022-10-15T14:56:40.140Z,75.74
2022-10-15T14:59:24.278Z,76.22
2022-10-15T15:02:04.711Z,76.41
2022-10-15T15:04:46.801Z,76.86
2022-10-15T15:07:23.737Z,76.69
2022-10-15T15:09:56.244Z,77.52
2022-10-15T15:12:31.641Z,77.03
2022-10-15T15:15:09.889Z,78.02
2022-10-15T15:17:45.075Z,78.69
2022-10-15T15:20:24.289Z,79.09
2022-10-15T15:22:55.389Z,80.51
2022-10-15T15:25:39.848Z,81.18
2022-10-15T15:28:31.627Z,81.62
2022-10-15T15:31:26.883Z,84.67
2022-10-15T15:34:08.098Z,89.83
2022-10-15T15:36:40.341Z,91.65
2022-10-15T15:39:17.515Z,91.96
2022-10-15T15:41:47.230Z,91.97
2022-10-15T15:44:26.049Z,91.75
2022-10-15T15:47:07.231Z,90.34
2022-10-15T15:49:47.902Z,90.84
2022-10-15T15:52:31.231Z,89.66
2022-10-15T15:55:11.235Z,88.23
2022-10-15T15:57:54.622Z,86.22
2022-10-15T16:00:27.896Z,86.74
2022-10-15T16:03:04.752Z,86.83
2022-10-15T16:05:52.237Z,86.56
2022-10-15T16:08:31.192Z,86.37
2022-10-15T16:11:07.535Z,85.46
2022-10-15T16:13:49.081Z,85.08
2022-10-15T16:16:24.435Z,84.74
2022-10-15T16:19:05.439Z,85.20
2022-10-15T16:21:40.869Z,84.45
2022-10-15T16:24:22.910Z,84.92
2022-10-15T16:26:52.818Z,84.13
2022-10-15T16:29:27.019Z,83.58
2022-10-15T16:31:58.857Z,84.16
2022-10-15T16:34:31.638Z,85.84
2022-10-15T16:37:04.328Z,85.90
2022-10-15T16:39:36.720Z,86.12
2022-10-15T16:42:13.671Z,85.84
2022-10-15T16:44:51.404Z,86.67
2022-10-15T16:47:21.490Z,86.97
2022-10-15T16:49:59.412Z,87.53
2022-10-15T16:52:30.342Z,88.87
2022-10-15T16:55:05.521Z,89.10
2022-10-15T16:57:42.418Z,89.86
2022-10-15T17:00:17.364Z,90.55
2022-10-15T17:02:50.862Z,91.45
2022-10-15T17:05:27.324Z,91.27
2022-10-15T17:08:08.170Z,91.59
2022-10-15T17:10:55.232Z,92.98
2022-10-15T17:13:34.108Z,94.07
2022-10-15T17:16:22.505Z,94.09
2022-10-15T17:19:08.892Z,93.66
2022-10-15T17:21:47.839Z,94.18
2022-10-15T17:24:24.181Z,93.98
2022-10-15T17:27:03.551Z,92.59
2022-10-15T17:29:36.502Z,92.65
2022-10-15T17:32:11.663Z,93.36
2022-10-15T17:34:42.865Z,93.99
2022-10-15T17:37:14.998Z,94.76
2022-10-15T17:39:52.854Z,96.71
2022-10-15T17:42:24.404Z,97.58
2022-10-15T17:45:11.578Z,98.79
2022-10-15T17:47:51.932Z,99.61
2022-10-15T17:50:24.299Z,100.00
2022-10-15T17:52:55.323Z,100.00
2022-10-15T17:55:30.996Z,100.00
2022-10-15T17:58:08.414Z,100.00
2022-10-15T18:00:46.371Z,100.00
2022-10-15T18:03:22.590Z,100.00
2022-10-15T18:05:56.222Z,100.00
2022-10-15T18:08:31.378Z,100.00
2022-10-15T18:11:09.783Z,99.35
2022-10-15T18:13:37.533Z,99.19
2022-10-15T18:16:08.425Z,99.51
2022-10-15T18:18:46.182Z,98.77
2022-10-15T18:21:23.368Z,99.04
2022-10-15T18:24:01.569Z,98.59
2022-10-15T18:26:35.545Z,98.68
2022-10-15T18:29:11.262Z,98.95
2022-10-15T18:31:47.271Z,99.08
2022-10-15T18:34:22.293Z,99.64
2022-10-15T18:36:57.539Z,99.43
2022-10-15T18:39:29.417Z,99.07
2022-10-15T18:42:02.638Z,99.08
2022-10-15T18:44:32.202Z,98.77
2022-10-15T18:47:03.599Z,98.35
2022-10-15T18:49:43.381Z,98.30
2022-10-15T18:52:22.006Z,98.46
2022-10-15T18:55:06.355Z,97.97
2022-10-15T18:57:43.719Z,97.02
2022-10-15T19:00:25.302Z,98.38
2022-10-15T19:02:58.674Z,99.28
2022-10-15T19:05:38.101Z,99.26
2022-10-15T19:08:20.788Z,100.00
2022-10-15T19:10:52.995Z,100.00
2022-10-15T19:13:33.316Z,100.00
2022-10-15T19:16:14.271Z,100.00
2022-10-15T19:18:57.107Z,100.00
2022-10-15T19:21:27.201Z,100.00
2022-10-15T19:24:02.094Z,100.00
2022-10-15T19:26:36.070Z,100.00
2022-10-15T19:29:23.121Z,100.00
2022-10-15T19:32:03.279Z,100.00
2022-10-15T19:34:40.978Z,100.00
2022-10-15T19:37:19.771Z,100.00
2022-10-15T19:40:00.634Z,100.00
2022-10-15T19:42:31.399Z,100.00
2022-10-15T19:45:09.872Z,100.00
2022-10-15T19:47:47.269Z,100.00
2022-10-15T19:50:19.555Z,100.00
2022-10-15T19:52:50.954Z,100.00
2022-10-15T19:55:21.755Z,100.00
2022-10-15T19:57:54.419Z,100.00
2022-10-15T20:00:26.544Z,100.00
2022-10-15T20:03:02.417Z,100.00
2022-10-15T20:05:34.073Z,100.00
2022-10-15T20:08:08.285Z,100.00
2022-10-15T20:10:47.481Z,100.00
2022-10-15T20:13:22.457Z,100.00
2022-10-15T20:15:57.918Z,100.00
2022-10-15T20:18:32.814Z,100.00
2022-10-15T20:21:16.050Z,100.00
2022-10-15T20:23:59.640Z,100.00
2022-10-15T20:26:33.928Z,100.00
2022-10-15T20:29:09.659Z,100.00
2022-10-15T20:31:46.091Z,99.77
2022-10-15T20:34:24.044Z,100.00
2022-10-15T20:37:01.843Z,100.00
2022-10-15T20:39:51.336Z,100.00
2022-10-15T20:42:29.725Z,100.00
2022-10-15T20:44:59.311Z,100.00
2022-10-15T20:47:35.414Z,100.00
2022-10-15T20:50:17.869Z,100.00
2022-10-15T20:52:53.754Z,100.00
2022-10-15T20:55:23.992Z,100.00
2022-10-15T20:58:01.665Z,100.00
2022-10-15T21:00:37.075Z,100.00
2022-10-15T21:03:15.236Z,100.00
2022-10-15T21:05:52.804Z,100.00
2022-10-15T21:08:30.907Z,100.00
2022-10-15T21:11:06.093Z,100.00
2022-10-15T21:13:42.412Z,100.00
2022-10-15T21:16:23.347Z,100.00
2022-10-15T21:19:00.992Z,100.00
2022-10-15T21:21:38.155Z,100.00
2022-10-15T21:24:15.250Z,100.00
2022-10-15T21:26:52.581Z,100.00
2022-10-15T21:29:22.566Z,100.00
2022-10-15T21:31:54.691Z,100.00
2022-10-15T21:34:27.920Z,100.00
2022-10-15T21:37:03.293Z,100.00
2022-10-15T21:39:35.574Z,100.00
2022-10-15T21:42:12.691Z,100.00
2022-10-15T21:44:44.933Z,100.00
2022-10-15T21:47:15.451Z,100.00
2022-10-15T21:49:50.639Z,100.00
2022-10-15T21:52:29.453Z,100.00
2022-10-15T21:55:08.214Z,100.00
2022-10-15T21:57:43.050Z,100.00
2022-10-15T22:00:18.916Z,100.00
2022-10-15T22:02:51.917Z,100.00
2022-10-15T22:05:32.577Z,100.00
2022-10-15T22:08:04.969Z,100.00
2022-10-15T22:10:37.890Z,100.00
2022-10-15T22:13:16.262Z,100.00
2022-10-15T22:15:54.350Z,100.00
2022-10-15T22:18:28.257Z,100.00
2022-10-15T22:21:13.765Z,100.00
2022-10-15T22:23:50.128Z,100.00
2022-10-15T22:26:30.464Z,100.00
2022-10-15T22:29:07.895Z,100.00
2022-10-15T22:31:40.736Z,100.00
2022-10-15T22:34:18.607Z,100.00
2022-10-15T22:36:53.656Z,100.00
2022-10-15T22:39:31.448Z,100.00
2022-10-15T22:42:12.360Z,100.00
2022-10-15T22:44:46.274Z,100.00
2022-10-15T22:47:21.119Z,100.00
2022-10-15T22:49:57.219Z,100.00
2022-10-15T22:52:37.655Z,100.00
2022-10-15T22:55:16.479Z,100.00
2022-10-15T22:58:02.754Z,100.00
2022-10-15T23:00:37.129Z,100.00
2022-10-15T23:03:08.471Z,100.00
2022-10-15T23:05:43.445Z,100.00
2022-10-15T23:08:18.725Z,100.00
2022-10-15T23:10:57.481Z,100.00
2022-10-15T23:13:33.322Z,100.00
2022-10-15T23:16:17.934Z,100.00
2022-10-15T23:18:51.450Z,100.00
2022-10-15T23:21:35.828Z,100.00
2022-10-15T23:24:06.382Z,100.00
2022-10-15T23:26:39.220Z,100.00
2022-10-15T23:29:15.443Z,100.00
2022-10-15T23:31:48.345Z,100.00
2022-10-15T23:34:23.326Z,100.00
2022-10-15T23:36:58.930Z,100.00
2022-10-15T23:39:31.024Z,100.00
2022-10-15T23:42:08.869Z,100.00
2022-10-15T23:44:40.805Z,100.00
2022-10-15T23:47:13.414Z,100.00
2022-10-15T23:49:51.562Z,100.00
2022-10-15T23:52:26.400Z,100.00
2022-10-15T23:55:03.724Z,100.00
2022-10-15T23:57:33.290Z,100.00
